sensor_id;sensor_type;location;lat;lon;timestamp;temperature;humidity
44215;DHT22;29884;47.450;19.124;2023-12-20T00:01:19;-1.00;99.90
44215;DHT22;29884;47.450;19.124;2023-12-20T00:03:45;-1.00;99.90
44215;DHT22;29884;47.450;19.124;2023-12-20T00:06:11;-1.00;99.90
44215;DHT22;29884;47.450;19.124;2023-12-20T00:08:36;-1.10;99.90
44215;DHT22;29884;47.450;19.124;2023-12-20T00:11:02;-1.00;99.90
44215;DHT22;29884;47.450;19.124;2023-12-20T00:13:27;-1.00;99.90
44215;DHT22;29884;47.450;19.124;2023-12-20T00:15:53;-1.00;99.90
44215;DHT22;29884;47.450;19.124;2023-12-20T00:18:18;-1.10;99.90
44215;DHT22;29884;47.450;19.124;2023-12-20T00:20:44;-1.00;99.90
44215;DHT22;29884;47.450;19.124;2023-12-20T00:23:10;-1.00;99.90
44215;DHT22;29884;47.450;19.124;2023-12-20T00:25:35;-1.00;99.90
44215;DHT22;29884;47.450;19.124;2023-12-20T00:28:01;-0.90;99.90
44215;DHT22;29884;47.450;19.124;2023-12-20T00:30:27;-1.00;99.90
44215;DHT22;29884;47.450;19.124;2023-12-20T00:32:53;-1.00;99.90
44215;DHT22;29884;47.450;19.124;2023-12-20T00:35:19;-0.90;99.90
44215;DHT22;29884;47.450;19.124;2023-12-20T00:37:44;-0.80;99.90
44215;DHT22;29884;47.450;19.124;2023-12-20T00:40:10;-0.80;99.90
44215;DHT22;29884;47.450;19.124;2023-12-20T00:42:36;-0.80;99.90
44215;DHT22;29884;47.450;19.124;2023-12-20T00:45:02;-0.80;99.90
44215;DHT22;29884;47.450;19.124;2023-12-20T00:47:30;-0.80;99.90
44215;DHT22;29884;47.450;19.124;2023-12-20T00:49:56;-0.80;99.90
44215;DHT22;29884;47.450;19.124;2023-12-20T00:52:21;-0.80;99.90
44215;DHT22;29884;47.450;19.124;2023-12-20T00:54:48;-0.70;99.90
44215;DHT22;29884;47.450;19.124;2023-12-20T00:57:14;-0.80;99.90
44215;DHT22;29884;47.450;19.124;2023-12-20T00:59:40;-0.80;99.90
44215;DHT22;29884;47.450;19.124;2023-12-20T01:02:06;-0.80;99.90
44215;DHT22;29884;47.450;19.124;2023-12-20T01:04:32;-0.80;99.90
44215;DHT22;29884;47.450;19.124;2023-12-20T01:06:57;-0.70;99.90
44215;DHT22;29884;47.450;19.124;2023-12-20T01:09:23;-0.70;99.90
44215;DHT22;29884;47.450;19.124;2023-12-20T01:11:52;-0.80;99.90
44215;DHT22;29884;47.450;19.124;2023-12-20T01:14:17;-0.80;99.90
44215;DHT22;29884;47.450;19.124;2023-12-20T01:16:43;-0.80;99.90
44215;DHT22;29884;47.450;19.124;2023-12-20T01:19:09;-0.80;99.90
44215;DHT22;29884;47.450;19.124;2023-12-20T01:21:34;-0.80;99.90
44215;DHT22;29884;47.450;19.124;2023-12-20T01:24:00;-0.90;99.90
44215;DHT22;29884;47.450;19.124;2023-12-20T01:26:25;-0.90;99.90
44215;DHT22;29884;47.450;19.124;2023-12-20T01:28:51;-0.90;99.90
44215;DHT22;29884;47.450;19.124;2023-12-20T01:31:16;-0.70;99.90
44215;DHT22;29884;47.450;19.124;2023-12-20T01:33:42;-0.80;99.90
44215;DHT22;29884;47.450;19.124;2023-12-20T01:36:08;-0.80;99.90
44215;DHT22;29884;47.450;19.124;2023-12-20T01:38:34;-0.80;99.90
44215;DHT22;29884;47.450;19.124;2023-12-20T01:41:00;-0.90;99.90
44215;DHT22;29884;47.450;19.124;2023-12-20T01:43:25;-0.90;99.90
44215;DHT22;29884;47.450;19.124;2023-12-20T01:45:51;-0.80;99.90
44215;DHT22;29884;47.450;19.124;2023-12-20T01:48:20;-0.80;99.90
44215;DHT22;29884;47.450;19.124;2023-12-20T01:50:45;-0.70;99.90
44215;DHT22;29884;47.450;19.124;2023-12-20T01:53:12;-0.60;99.90
44215;DHT22;29884;47.450;19.124;2023-12-20T01:55:40;-0.60;99.90
44215;DHT22;29884;47.450;19.124;2023-12-20T01:58:07;-0.60;99.90
44215;DHT22;29884;47.450;19.124;2023-12-20T02:00:33;-0.60;99.90
44215;DHT22;29884;47.450;19.124;2023-12-20T02:03:01;-0.70;99.90
44215;DHT22;29884;47.450;19.124;2023-12-20T02:05:27;-0.80;99.90
44215;DHT22;29884;47.450;19.124;2023-12-20T02:07:54;-0.80;99.90
44215;DHT22;29884;47.450;19.124;2023-12-20T02:10:20;-0.80;99.90
44215;DHT22;29884;47.450;19.124;2023-12-20T02:12:45;-0.70;99.90
44215;DHT22;29884;47.450;19.124;2023-12-20T02:15:11;-0.70;99.90
44215;DHT22;29884;47.450;19.124;2023-12-20T02:17:38;-0.70;99.90
44215;DHT22;29884;47.450;19.124;2023-12-20T02:20:05;-0.60;99.90
44215;DHT22;29884;47.450;19.124;2023-12-20T02:22:32;-0.70;99.90
44215;DHT22;29884;47.450;19.124;2023-12-20T02:24:58;-0.70;99.90
44215;DHT22;29884;47.450;19.124;2023-12-20T02:27:24;-0.70;99.90
44215;DHT22;29884;47.450;19.124;2023-12-20T02:29:50;-0.70;99.90
44215;DHT22;29884;47.450;19.124;2023-12-20T02:32:20;-0.90;99.90
44215;DHT22;29884;47.450;19.124;2023-12-20T02:34:48;-0.80;99.90
44215;DHT22;29884;47.450;19.124;2023-12-20T02:37:14;-0.80;99.90
44215;DHT22;29884;47.450;19.124;2023-12-20T02:39:40;-0.80;99.90
44215;DHT22;29884;47.450;19.124;2023-12-20T02:42:05;-0.80;99.90
44215;DHT22;29884;47.450;19.124;2023-12-20T02:44:31;-0.80;99.90
44215;DHT22;29884;47.450;19.124;2023-12-20T02:46:56;-0.80;99.90
44215;DHT22;29884;47.450;19.124;2023-12-20T02:49:22;-0.80;99.90
44215;DHT22;29884;47.450;19.124;2023-12-20T02:51:47;-0.70;99.90
44215;DHT22;29884;47.450;19.124;2023-12-20T02:54:13;-0.70;99.90
44215;DHT22;29884;47.450;19.124;2023-12-20T02:56:39;-0.70;99.90
44215;DHT22;29884;47.450;19.124;2023-12-20T02:59:05;-0.70;99.90
44215;DHT22;29884;47.450;19.124;2023-12-20T03:01:34;-0.80;99.90
44215;DHT22;29884;47.450;19.124;2023-12-20T03:04:01;-0.80;99.90
44215;DHT22;29884;47.450;19.124;2023-12-20T03:06:26;-0.80;99.90
44215;DHT22;29884;47.450;19.124;2023-12-20T03:08:52;-0.70;99.90
44215;DHT22;29884;47.450;19.124;2023-12-20T03:11:18;-0.60;99.90
44215;DHT22;29884;47.450;19.124;2023-12-20T03:13:43;-0.60;99.90
44215;DHT22;29884;47.450;19.124;2023-12-20T03:16:10;-0.60;99.90
44215;DHT22;29884;47.450;19.124;2023-12-20T03:18:36;-0.60;99.90
44215;DHT22;29884;47.450;19.124;2023-12-20T03:21:02;-0.50;99.90
44215;DHT22;29884;47.450;19.124;2023-12-20T03:23:29;-0.60;99.90
44215;DHT22;29884;47.450;19.124;2023-12-20T03:25:56;-0.60;99.90
44215;DHT22;29884;47.450;19.124;2023-12-20T03:28:21;-0.50;99.90
44215;DHT22;29884;47.450;19.124;2023-12-20T03:30:48;-0.60;99.90
44215;DHT22;29884;47.450;19.124;2023-12-20T03:33:14;-0.60;99.90
44215;DHT22;29884;47.450;19.124;2023-12-20T03:35:39;-0.60;99.90
44215;DHT22;29884;47.450;19.124;2023-12-20T03:38:05;-0.60;99.90
44215;DHT22;29884;47.450;19.124;2023-12-20T03:40:31;-0.60;99.90
44215;DHT22;29884;47.450;19.124;2023-12-20T03:42:56;-0.60;99.90
44215;DHT22;29884;47.450;19.124;2023-12-20T03:45:22;-0.60;99.90
44215;DHT22;29884;47.450;19.124;2023-12-20T03:47:47;-0.70;99.90
44215;DHT22;29884;47.450;19.124;2023-12-20T03:50:14;-0.80;99.90
44215;DHT22;29884;47.450;19.124;2023-12-20T03:52:39;-0.80;99.90
44215;DHT22;29884;47.450;19.124;2023-12-20T03:55:06;-0.80;99.90
44215;DHT22;29884;47.450;19.124;2023-12-20T03:57:31;-0.70;99.90
44215;DHT22;29884;47.450;19.124;2023-12-20T03:59:57;-0.80;99.90
44215;DHT22;29884;47.450;19.124;2023-12-20T04:02:22;-0.80;99.90
44215;DHT22;29884;47.450;19.124;2023-12-20T04:04:48;-0.80;99.90
44215;DHT22;29884;47.450;19.124;2023-12-20T04:07:13;-0.80;99.90
44215;DHT22;29884;47.450;19.124;2023-12-20T04:09:40;-0.80;99.90
44215;DHT22;29884;47.450;19.124;2023-12-20T04:12:06;-0.80;99.90
44215;DHT22;29884;47.450;19.124;2023-12-20T04:14:32;-0.70;99.90
44215;DHT22;29884;47.450;19.124;2023-12-20T04:16:58;-0.60;99.90
44215;DHT22;29884;47.450;19.124;2023-12-20T04:19:23;-0.70;99.90
44215;DHT22;29884;47.450;19.124;2023-12-20T04:21:49;-0.70;99.90
44215;DHT22;29884;47.450;19.124;2023-12-20T04:24:15;-0.70;99.90
44215;DHT22;29884;47.450;19.124;2023-12-20T04:26:40;-0.80;99.90
44215;DHT22;29884;47.450;19.124;2023-12-20T04:29:06;-0.80;99.90
44215;DHT22;29884;47.450;19.124;2023-12-20T04:31:32;-0.80;99.90
44215;DHT22;29884;47.450;19.124;2023-12-20T04:33:57;-0.80;99.90
44215;DHT22;29884;47.450;19.124;2023-12-20T04:36:23;-0.80;99.90
44215;DHT22;29884;47.450;19.124;2023-12-20T04:38:50;-0.90;99.90
44215;DHT22;29884;47.450;19.124;2023-12-20T04:41:16;-0.80;99.90
44215;DHT22;29884;47.450;19.124;2023-12-20T04:43:44;-0.90;99.90
44215;DHT22;29884;47.450;19.124;2023-12-20T04:46:09;-0.90;99.90
44215;DHT22;29884;47.450;19.124;2023-12-20T04:48:35;-0.90;99.90
44215;DHT22;29884;47.450;19.124;2023-12-20T04:51:00;-0.90;99.90
44215;DHT22;29884;47.450;19.124;2023-12-20T04:53:26;-0.90;99.90
44215;DHT22;29884;47.450;19.124;2023-12-20T04:55:52;-0.90;99.90
44215;DHT22;29884;47.450;19.124;2023-12-20T04:58:19;-0.90;99.90
44215;DHT22;29884;47.450;19.124;2023-12-20T05:00:44;-0.90;99.90
44215;DHT22;29884;47.450;19.124;2023-12-20T05:03:10;-0.80;99.90
44215;DHT22;29884;47.450;19.124;2023-12-20T05:05:36;-0.90;99.90
44215;DHT22;29884;47.450;19.124;2023-12-20T05:08:01;-0.80;99.90
44215;DHT22;29884;47.450;19.124;2023-12-20T05:10:27;-0.80;99.90
44215;DHT22;29884;47.450;19.124;2023-12-20T05:12:53;-0.70;99.90
44215;DHT22;29884;47.450;19.124;2023-12-20T05:15:19;-0.70;99.90
44215;DHT22;29884;47.450;19.124;2023-12-20T05:17:44;-0.70;99.90
44215;DHT22;29884;47.450;19.124;2023-12-20T05:20:10;-0.60;99.90
44215;DHT22;29884;47.450;19.124;2023-12-20T05:22:36;-0.70;99.90
44215;DHT22;29884;47.450;19.124;2023-12-20T05:25:01;-0.70;99.90
44215;DHT22;29884;47.450;19.124;2023-12-20T05:27:27;-0.80;99.90
44215;DHT22;29884;47.450;19.124;2023-12-20T05:29:53;-0.80;99.90
44215;DHT22;29884;47.450;19.124;2023-12-20T05:32:23;-0.80;99.90
44215;DHT22;29884;47.450;19.124;2023-12-20T05:34:48;-0.60;99.90
44215;DHT22;29884;47.450;19.124;2023-12-20T05:37:14;-0.60;99.90
44215;DHT22;29884;47.450;19.124;2023-12-20T05:39:39;-0.60;99.90
44215;DHT22;29884;47.450;19.124;2023-12-20T05:42:05;-0.60;99.90
44215;DHT22;29884;47.450;19.124;2023-12-20T05:44:31;-0.60;99.90
44215;DHT22;29884;47.450;19.124;2023-12-20T05:46:56;-0.70;99.90
44215;DHT22;29884;47.450;19.124;2023-12-20T05:49:22;-0.70;99.90
44215;DHT22;29884;47.450;19.124;2023-12-20T05:51:47;-0.60;99.90
44215;DHT22;29884;47.450;19.124;2023-12-20T05:54:13;-0.60;99.90
44215;DHT22;29884;47.450;19.124;2023-12-20T05:56:39;-0.50;99.90
44215;DHT22;29884;47.450;19.124;2023-12-20T05:59:04;-0.50;99.90
44215;DHT22;29884;47.450;19.124;2023-12-20T06:01:30;-0.50;99.90
44215;DHT22;29884;47.450;19.124;2023-12-20T06:03:56;-0.50;99.90
44215;DHT22;29884;47.450;19.124;2023-12-20T06:06:21;-0.50;99.90
44215;DHT22;29884;47.450;19.124;2023-12-20T06:08:47;-0.60;99.90
44215;DHT22;29884;47.450;19.124;2023-12-20T06:11:12;-0.50;99.90
44215;DHT22;29884;47.450;19.124;2023-12-20T06:13:38;-0.60;99.90
44215;DHT22;29884;47.450;19.124;2023-12-20T06:16:06;-0.60;99.90
44215;DHT22;29884;47.450;19.124;2023-12-20T06:18:32;-0.60;99.90
44215;DHT22;29884;47.450;19.124;2023-12-20T06:20:58;-0.60;99.90
44215;DHT22;29884;47.450;19.124;2023-12-20T06:23:24;-0.60;99.90
44215;DHT22;29884;47.450;19.124;2023-12-20T06:25:49;-0.60;99.90
44215;DHT22;29884;47.450;19.124;2023-12-20T06:28:15;-0.60;99.90
44215;DHT22;29884;47.450;19.124;2023-12-20T06:30:40;-0.50;99.90
44215;DHT22;29884;47.450;19.124;2023-12-20T06:33:06;-0.60;99.90
44215;DHT22;29884;47.450;19.124;2023-12-20T06:35:36;-0.50;99.90
44215;DHT22;29884;47.450;19.124;2023-12-20T06:38:02;-0.60;99.90
44215;DHT22;29884;47.450;19.124;2023-12-20T06:40:28;-0.60;99.90
44215;DHT22;29884;47.450;19.124;2023-12-20T06:42:53;-0.50;99.90
44215;DHT22;29884;47.450;19.124;2023-12-20T06:45:19;-0.50;99.90
44215;DHT22;29884;47.450;19.124;2023-12-20T06:47:45;-0.60;99.90
44215;DHT22;29884;47.450;19.124;2023-12-20T06:50:10;-0.60;99.90
44215;DHT22;29884;47.450;19.124;2023-12-20T06:52:36;-0.50;99.90
44215;DHT22;29884;47.450;19.124;2023-12-20T06:55:02;-0.60;99.90
44215;DHT22;29884;47.450;19.124;2023-12-20T06:57:27;-0.60;99.90
44215;DHT22;29884;47.450;19.124;2023-12-20T06:59:53;-0.60;99.90
44215;DHT22;29884;47.450;19.124;2023-12-20T07:02:19;-0.60;99.90
44215;DHT22;29884;47.450;19.124;2023-12-20T07:04:44;-0.60;99.90
44215;DHT22;29884;47.450;19.124;2023-12-20T07:07:10;-0.50;99.90
44215;DHT22;29884;47.450;19.124;2023-12-20T07:09:36;-0.60;99.90
44215;DHT22;29884;47.450;19.124;2023-12-20T07:12:01;-0.60;99.90
44215;DHT22;29884;47.450;19.124;2023-12-20T07:14:27;-0.60;99.90
44215;DHT22;29884;47.450;19.124;2023-12-20T07:16:53;-0.60;99.90
44215;DHT22;29884;47.450;19.124;2023-12-20T07:19:19;-0.50;99.90
44215;DHT22;29884;47.450;19.124;2023-12-20T07:21:44;-0.40;99.90
44215;DHT22;29884;47.450;19.124;2023-12-20T07:24:10;-0.40;99.90
44215;DHT22;29884;47.450;19.124;2023-12-20T07:29:16;-0.40;99.90
44215;DHT22;29884;47.450;19.124;2023-12-20T07:31:41;-0.30;99.90
44215;DHT22;29884;47.450;19.124;2023-12-20T07:34:07;-0.30;99.90
44215;DHT22;29884;47.450;19.124;2023-12-20T07:36:32;-0.20;99.90
44215;DHT22;29884;47.450;19.124;2023-12-20T07:38:58;-0.10;99.90
44215;DHT22;29884;47.450;19.124;2023-12-20T07:41:24;-0.10;99.90
44215;DHT22;29884;47.450;19.124;2023-12-20T07:43:49;-0.10;99.90
44215;DHT22;29884;47.450;19.124;2023-12-20T07:46:15;-0.20;99.90
44215;DHT22;29884;47.450;19.124;2023-12-20T07:48:40;-0.10;99.90
44215;DHT22;29884;47.450;19.124;2023-12-20T07:51:06;-0.10;99.90
44215;DHT22;29884;47.450;19.124;2023-12-20T07:53:33;-0.10;99.90
44215;DHT22;29884;47.450;19.124;2023-12-20T07:55:59;-0.20;99.90
44215;DHT22;29884;47.450;19.124;2023-12-20T07:58:25;-0.10;99.90
44215;DHT22;29884;47.450;19.124;2023-12-20T08:00:50;0.00;99.90
44215;DHT22;29884;47.450;19.124;2023-12-20T08:03:16;0.00;99.90
44215;DHT22;29884;47.450;19.124;2023-12-20T08:05:42;0.10;99.90
44215;DHT22;29884;47.450;19.124;2023-12-20T08:08:07;0.10;99.90
44215;DHT22;29884;47.450;19.124;2023-12-20T08:10:33;0.00;99.90
44215;DHT22;29884;47.450;19.124;2023-12-20T08:12:59;0.10;99.90
44215;DHT22;29884;47.450;19.124;2023-12-20T08:15:24;0.20;99.90
44215;DHT22;29884;47.450;19.124;2023-12-20T08:17:50;0.30;99.90
44215;DHT22;29884;47.450;19.124;2023-12-20T08:20:18;0.20;99.90
44215;DHT22;29884;47.450;19.124;2023-12-20T08:22:44;0.30;99.90
44215;DHT22;29884;47.450;19.124;2023-12-20T08:25:10;0.20;99.90
44215;DHT22;29884;47.450;19.124;2023-12-20T08:27:40;0.20;99.90
44215;DHT22;29884;47.450;19.124;2023-12-20T08:30:07;0.30;99.90
44215;DHT22;29884;47.450;19.124;2023-12-20T08:32:33;0.30;99.90
44215;DHT22;29884;47.450;19.124;2023-12-20T08:34:58;0.40;99.90
44215;DHT22;29884;47.450;19.124;2023-12-20T08:37:24;0.30;99.90
44215;DHT22;29884;47.450;19.124;2023-12-20T08:39:49;0.30;99.90
44215;DHT22;29884;47.450;19.124;2023-12-20T08:42:15;0.30;99.90
44215;DHT22;29884;47.450;19.124;2023-12-20T08:44:41;0.20;99.90
44215;DHT22;29884;47.450;19.124;2023-12-20T08:47:06;0.30;99.90
44215;DHT22;29884;47.450;19.124;2023-12-20T08:49:32;0.40;99.90
44215;DHT22;29884;47.450;19.124;2023-12-20T08:51:58;0.40;99.90
44215;DHT22;29884;47.450;19.124;2023-12-20T08:54:23;0.50;99.90
44215;DHT22;29884;47.450;19.124;2023-12-20T08:56:49;0.50;99.90
44215;DHT22;29884;47.450;19.124;2023-12-20T08:59:15;0.40;99.90
44215;DHT22;29884;47.450;19.124;2023-12-20T09:01:41;0.30;99.90
44215;DHT22;29884;47.450;19.124;2023-12-20T09:04:06;0.40;99.90
44215;DHT22;29884;47.450;19.124;2023-12-20T09:06:32;0.50;99.90
44215;DHT22;29884;47.450;19.124;2023-12-20T09:08:57;0.60;99.90
44215;DHT22;29884;47.450;19.124;2023-12-20T09:11:23;0.60;99.90
44215;DHT22;29884;47.450;19.124;2023-12-20T09:13:48;0.40;99.90
44215;DHT22;29884;47.450;19.124;2023-12-20T09:16:14;0.50;99.90
44215;DHT22;29884;47.450;19.124;2023-12-20T09:18:41;0.50;99.90
44215;DHT22;29884;47.450;19.124;2023-12-20T09:21:07;0.50;99.90
44215;DHT22;29884;47.450;19.124;2023-12-20T09:23:32;0.50;99.90
44215;DHT22;29884;47.450;19.124;2023-12-20T09:25:58;0.50;99.90
44215;DHT22;29884;47.450;19.124;2023-12-20T09:28:24;0.40;99.90
44215;DHT22;29884;47.450;19.124;2023-12-20T09:30:49;0.60;99.90
44215;DHT22;29884;47.450;19.124;2023-12-20T09:33:15;0.70;99.90
44215;DHT22;29884;47.450;19.124;2023-12-20T09:35:42;0.70;99.90
44215;DHT22;29884;47.450;19.124;2023-12-20T09:38:07;0.80;99.90
44215;DHT22;29884;47.450;19.124;2023-12-20T09:40:35;0.90;99.90
44215;DHT22;29884;47.450;19.124;2023-12-20T09:43:05;0.80;99.90
44215;DHT22;29884;47.450;19.124;2023-12-20T09:45:34;0.90;99.90
44215;DHT22;29884;47.450;19.124;2023-12-20T09:48:00;0.90;99.90
44215;DHT22;29884;47.450;19.124;2023-12-20T09:50:27;0.80;99.90
44215;DHT22;29884;47.450;19.124;2023-12-20T09:52:53;0.90;99.90
44215;DHT22;29884;47.450;19.124;2023-12-20T09:55:21;1.00;99.90
44215;DHT22;29884;47.450;19.124;2023-12-20T09:57:48;1.00;99.90
44215;DHT22;29884;47.450;19.124;2023-12-20T10:00:14;0.90;99.90
44215;DHT22;29884;47.450;19.124;2023-12-20T10:02:50;1.00;99.90
44215;DHT22;29884;47.450;19.124;2023-12-20T10:05:28;1.10;99.90
44215;DHT22;29884;47.450;19.124;2023-12-20T10:07:54;1.20;99.90
44215;DHT22;29884;47.450;19.124;2023-12-20T10:10:20;1.10;99.90
44215;DHT22;29884;47.450;19.124;2023-12-20T10:13:07;1.10;99.90
44215;DHT22;29884;47.450;19.124;2023-12-20T10:15:34;1.20;99.90
44215;DHT22;29884;47.450;19.124;2023-12-20T10:18:01;1.30;99.90
44215;DHT22;29884;47.450;19.124;2023-12-20T10:20:27;1.40;99.90
44215;DHT22;29884;47.450;19.124;2023-12-20T10:22:57;1.50;99.90
44215;DHT22;29884;47.450;19.124;2023-12-20T10:25:24;1.50;99.90
44215;DHT22;29884;47.450;19.124;2023-12-20T10:28:08;1.60;99.90
44215;DHT22;29884;47.450;19.124;2023-12-20T10:30:34;1.50;99.90
44215;DHT22;29884;47.450;19.124;2023-12-20T10:32:59;1.60;99.90
44215;DHT22;29884;47.450;19.124;2023-12-20T10:35:25;1.60;99.90
44215;DHT22;29884;47.450;19.124;2023-12-20T10:37:55;1.60;99.90
44215;DHT22;29884;47.450;19.124;2023-12-20T10:40:22;1.60;99.90
44215;DHT22;29884;47.450;19.124;2023-12-20T10:42:48;1.50;99.90
44215;DHT22;29884;47.450;19.124;2023-12-20T10:45:16;1.70;99.90
44215;DHT22;29884;47.450;19.124;2023-12-20T10:47:46;1.60;99.90
44215;DHT22;29884;47.450;19.124;2023-12-20T10:50:12;1.60;99.90
44215;DHT22;29884;47.450;19.124;2023-12-20T10:52:38;1.70;99.90
44215;DHT22;29884;47.450;19.124;2023-12-20T10:55:04;1.70;99.90
44215;DHT22;29884;47.450;19.124;2023-12-20T10:57:30;1.80;99.90
44215;DHT22;29884;47.450;19.124;2023-12-20T11:00:00;1.80;99.90
44215;DHT22;29884;47.450;19.124;2023-12-20T11:02:32;1.70;99.90
44215;DHT22;29884;47.450;19.124;2023-12-20T11:05:05;1.80;99.90
44215;DHT22;29884;47.450;19.124;2023-12-20T11:07:48;1.90;99.90
44215;DHT22;29884;47.450;19.124;2023-12-20T11:10:25;2.00;99.90
44215;DHT22;29884;47.450;19.124;2023-12-20T11:12:58;1.90;99.90
44215;DHT22;29884;47.450;19.124;2023-12-20T11:15:27;2.00;99.90
44215;DHT22;29884;47.450;19.124;2023-12-20T11:17:57;2.00;99.90
44215;DHT22;29884;47.450;19.124;2023-12-20T11:20:24;2.00;99.90
44215;DHT22;29884;47.450;19.124;2023-12-20T11:23:00;2.00;99.90
44215;DHT22;29884;47.450;19.124;2023-12-20T11:25:26;2.20;99.90
44215;DHT22;29884;47.450;19.124;2023-12-20T11:28:11;2.00;99.90
44215;DHT22;29884;47.450;19.124;2023-12-20T11:30:52;2.00;99.90
44215;DHT22;29884;47.450;19.124;2023-12-20T11:33:37;2.00;99.90
44215;DHT22;29884;47.450;19.124;2023-12-20T11:36:06;2.00;99.90
44215;DHT22;29884;47.450;19.124;2023-12-20T11:38:37;2.10;99.90
44215;DHT22;29884;47.450;19.124;2023-12-20T11:41:05;1.90;99.90
44215;DHT22;29884;47.450;19.124;2023-12-20T11:43:32;1.90;99.90
44215;DHT22;29884;47.450;19.124;2023-12-20T11:46:06;1.90;99.90
44215;DHT22;29884;47.450;19.124;2023-12-20T11:48:32;1.90;99.90
44215;DHT22;29884;47.450;19.124;2023-12-20T11:50:58;2.00;99.90
44215;DHT22;29884;47.450;19.124;2023-12-20T11:53:24;2.10;99.90
44215;DHT22;29884;47.450;19.124;2023-12-20T11:55:50;2.20;99.90
44215;DHT22;29884;47.450;19.124;2023-12-20T11:58:16;2.10;99.90
44215;DHT22;29884;47.450;19.124;2023-12-20T12:00:43;2.10;99.90
44215;DHT22;29884;47.450;19.124;2023-12-20T12:03:09;2.10;99.90
44215;DHT22;29884;47.450;19.124;2023-12-20T12:05:35;2.20;99.90
44215;DHT22;29884;47.450;19.124;2023-12-20T12:08:02;2.20;99.90
44215;DHT22;29884;47.450;19.124;2023-12-20T12:10:28;2.10;99.90
44215;DHT22;29884;47.450;19.124;2023-12-20T12:12:54;2.20;99.90
44215;DHT22;29884;47.450;19.124;2023-12-20T12:15:20;2.30;99.90
44215;DHT22;29884;47.450;19.124;2023-12-20T12:17:56;2.50;99.90
44215;DHT22;29884;47.450;19.124;2023-12-20T12:20:22;2.60;99.90
44215;DHT22;29884;47.450;19.124;2023-12-20T12:23:05;2.80;99.90
44215;DHT22;29884;47.450;19.124;2023-12-20T12:25:34;2.70;99.90
44215;DHT22;29884;47.450;19.124;2023-12-20T12:28:00;2.80;99.90
44215;DHT22;29884;47.450;19.124;2023-12-20T12:30:27;2.90;99.90
44215;DHT22;29884;47.450;19.124;2023-12-20T12:32:53;2.90;99.90
44215;DHT22;29884;47.450;19.124;2023-12-20T12:35:19;2.90;99.90
44215;DHT22;29884;47.450;19.124;2023-12-20T12:37:45;3.00;99.90
44215;DHT22;29884;47.450;19.124;2023-12-20T12:40:12;3.40;99.90
44215;DHT22;29884;47.450;19.124;2023-12-20T12:42:38;4.70;99.90
44215;DHT22;29884;47.450;19.124;2023-12-20T12:45:05;5.30;99.90
44215;DHT22;29884;47.450;19.124;2023-12-20T12:47:31;5.60;99.90
44215;DHT22;29884;47.450;19.124;2023-12-20T12:49:56;5.80;99.90
44215;DHT22;29884;47.450;19.124;2023-12-20T12:52:22;5.80;99.90
44215;DHT22;29884;47.450;19.124;2023-12-20T12:54:48;5.90;99.90
44215;DHT22;29884;47.450;19.124;2023-12-20T12:57:14;6.10;99.90
44215;DHT22;29884;47.450;19.124;2023-12-20T12:59:42;6.10;99.90
44215;DHT22;29884;47.450;19.124;2023-12-20T13:02:08;6.10;99.90
44215;DHT22;29884;47.450;19.124;2023-12-20T13:04:33;6.10;99.90
44215;DHT22;29884;47.450;19.124;2023-12-20T13:06:59;6.10;99.90
44215;DHT22;29884;47.450;19.124;2023-12-20T13:09:25;6.10;99.90
44215;DHT22;29884;47.450;19.124;2023-12-20T13:11:51;6.10;99.90
44215;DHT22;29884;47.450;19.124;2023-12-20T13:14:16;6.00;99.90
44215;DHT22;29884;47.450;19.124;2023-12-20T13:16:42;5.90;99.90
44215;DHT22;29884;47.450;19.124;2023-12-20T13:19:08;5.90;99.90
44215;DHT22;29884;47.450;19.124;2023-12-20T13:21:34;5.90;99.90
44215;DHT22;29884;47.450;19.124;2023-12-20T13:23:59;5.90;99.90
44215;DHT22;29884;47.450;19.124;2023-12-20T13:26:25;5.80;99.90
44215;DHT22;29884;47.450;19.124;2023-12-20T13:28:50;5.80;99.90
44215;DHT22;29884;47.450;19.124;2023-12-20T13:31:16;5.70;99.90
44215;DHT22;29884;47.450;19.124;2023-12-20T13:33:42;5.70;99.90
44215;DHT22;29884;47.450;19.124;2023-12-20T13:36:07;5.60;99.90
44215;DHT22;29884;47.450;19.124;2023-12-20T13:38:34;5.50;99.90
44215;DHT22;29884;47.450;19.124;2023-12-20T13:40:59;5.60;99.90
44215;DHT22;29884;47.450;19.124;2023-12-20T13:43:25;5.60;99.90
44215;DHT22;29884;47.450;19.124;2023-12-20T13:45:50;5.60;99.90
44215;DHT22;29884;47.450;19.124;2023-12-20T13:48:16;5.60;99.90
44215;DHT22;29884;47.450;19.124;2023-12-20T13:50:42;5.50;99.90
44215;DHT22;29884;47.450;19.124;2023-12-20T13:53:08;5.50;99.90
44215;DHT22;29884;47.450;19.124;2023-12-20T13:55:33;5.40;99.90
44215;DHT22;29884;47.450;19.124;2023-12-20T13:57:59;5.40;99.90
44215;DHT22;29884;47.450;19.124;2023-12-20T14:00:24;5.30;99.90
44215;DHT22;29884;47.450;19.124;2023-12-20T14:02:50;5.30;99.90
44215;DHT22;29884;47.450;19.124;2023-12-20T14:05:16;5.30;99.90
44215;DHT22;29884;47.450;19.124;2023-12-20T14:07:43;5.20;99.90
44215;DHT22;29884;47.450;19.124;2023-12-20T14:10:13;5.20;99.90
44215;DHT22;29884;47.450;19.124;2023-12-20T14:12:39;5.20;99.90
44215;DHT22;29884;47.450;19.124;2023-12-20T14:15:05;5.20;99.90
44215;DHT22;29884;47.450;19.124;2023-12-20T14:17:38;5.20;99.90
44215;DHT22;29884;47.450;19.124;2023-12-20T14:20:08;5.30;99.90
44215;DHT22;29884;47.450;19.124;2023-12-20T14:22:35;5.40;99.90
44215;DHT22;29884;47.450;19.124;2023-12-20T14:25:01;5.40;99.90
44215;DHT22;29884;47.450;19.124;2023-12-20T14:27:27;5.30;99.90
44215;DHT22;29884;47.450;19.124;2023-12-20T14:29:55;5.30;99.90
44215;DHT22;29884;47.450;19.124;2023-12-20T14:32:21;5.30;99.90
44215;DHT22;29884;47.450;19.124;2023-12-20T14:34:47;5.20;99.90
44215;DHT22;29884;47.450;19.124;2023-12-20T14:37:12;5.20;99.90
44215;DHT22;29884;47.450;19.124;2023-12-20T14:39:38;5.20;99.90
44215;DHT22;29884;47.450;19.124;2023-12-20T14:42:10;5.10;99.90
44215;DHT22;29884;47.450;19.124;2023-12-20T14:44:42;5.10;99.90
44215;DHT22;29884;47.450;19.124;2023-12-20T14:47:07;5.10;99.90
44215;DHT22;29884;47.450;19.124;2023-12-20T14:49:33;5.10;99.90
44215;DHT22;29884;47.450;19.124;2023-12-20T14:51:59;5.10;99.90
44215;DHT22;29884;47.450;19.124;2023-12-20T14:54:25;5.00;99.90
44215;DHT22;29884;47.450;19.124;2023-12-20T14:56:50;5.10;99.90
44215;DHT22;29884;47.450;19.124;2023-12-20T14:59:16;5.20;99.90
44215;DHT22;29884;47.450;19.124;2023-12-20T15:01:42;5.20;99.90
44215;DHT22;29884;47.450;19.124;2023-12-20T15:04:09;5.20;99.90
44215;DHT22;29884;47.450;19.124;2023-12-20T15:06:38;5.20;99.90
44215;DHT22;29884;47.450;19.124;2023-12-20T15:09:04;5.30;99.90
44215;DHT22;29884;47.450;19.124;2023-12-20T15:11:30;5.40;99.90
44215;DHT22;29884;47.450;19.124;2023-12-20T15:13:56;5.40;99.90
44215;DHT22;29884;47.450;19.124;2023-12-20T15:16:23;5.40;99.90
44215;DHT22;29884;47.450;19.124;2023-12-20T15:18:49;5.30;99.90
44215;DHT22;29884;47.450;19.124;2023-12-20T15:21:16;5.30;99.90